Pride Of Kent — MQCJ2 — position and weather

sailwx.info

Track history (hours):
 
Tides and Currents Weather Stations Pressure Air Temp Water Temp Dewpoint Dewpoint Depression Visibility Wind Speed Wind Dir Waves Ship Positions

Pride Of Kent

Operator: P & O Ferries

Last reported at 2015-Aug-01 04:33 UTC. Time now 2015-Aug-01 05:46 UTC.
Position N 50°58' E 001°51'.

Length 180 m; draft 6 m.

Type: Passenger vessel. MMSI: 232009000.

Date/timePositionNaut miles runAvg speedWind from/ knotsBaromVisibWave heightAir tempDewpointWater temp
2015-Aug-01 04:33N 50°58' E 001°51'3 2.6
2015-Aug-01 03:33N 50°58' E 001°47'1616.3
2015-Aug-01 02:33N 51°06' E 001°24'3 2.1
2015-Aug-01 01:07N 51°07' E 001°20'5 9.0
2015-Aug-01 00:33N 51°07' E 001°28'1514.9
2015-Jul-31 23:34N 50°58' E 001°47'2 2.4
2015-Jul-31 22:33N 50°58' E 001°51'1515.0
2015-Jul-31 21:33N 51°02' E 001°28'7 6.4
2015-Jul-31 20:24N 51°07' E 001°20'910.5
2015-Jul-31 19:34N 51°04' E 001°33'1312.7
2015-Jul-31 18:33N 50°58' E 001°51'6 5.6
2015-Jul-31 17:33N 50°58' E 001°42'1716.6
2015-Jul-31 16:33N 51°07' E 001°20'2 1.5
2015-Jul-31 15:33N 51°07' E 001°22'1918.9
2015-Jul-31 14:34N 50°58' E 001°49'1 1.0
2015-Jul-31 13:33N 50°58' E 001°50'1717.2
2015-Jul-31 12:33N 51°05' E 001°26'4 3.6
2015-Jul-31 11:25N 51°07' E 001°20'1213.9
2015-Jul-31 10:33N 51°02' E 001°37'10 9.7
2015-Jul-31 09:33N 50°58' E 001°51'6 5.8
2015-Jul-31 08:33N 50°58' E 001°42'1716.7
2015-Jul-31 07:33N 51°07' E 001°20'0 0.5
2015-Jul-31 06:33N 51°07' E 001°20'8 8.1
2015-Jul-31 05:33N 51°04' E 001°31'1313.4
2015-Jul-31 04:33N 50°58' E 001°51'1 1.2
2015-Jul-31 03:33N 50°58' E 001°49'1615.8
2015-Jul-31 02:33N 51°05' E 001°27'5 3.3
2015-Jul-31 01:09N 51°07' E 001°20'812.7
2015-Jul-31 00:33N 51°04' E 001°31'1411.5
2015-Jul-30 23:20N 50°58' E 001°51'5 6.2
2015-Jul-30 22:33N 50°58' E 001°43'17 8.7
2015-Jul-30 20:33N 51°07' E 001°20'1817.8
2015-Jul-30 19:33N 50°58' E 001°45'4 4.1
2015-Jul-30 18:33N 50°58' E 001°51'1313.3
2015-Jul-30 17:33N 51°01' E 001°31'9 6.3
2015-Jul-30 16:05N 51°07' E 001°20'712.7
2015-Jul-30 15:33N 51°05' E 001°30'1515.1
2015-Jul-30 14:33N 50°58' E 001°51'1 1.5
2015-Jul-30 13:34N 50°58' E 001°49'1918.7
2015-Jul-30 12:33N 51°07' E 001°22'2 1.6
2015-Jul-30 11:30N 51°07' E 001°20'1313.7
2015-Jul-30 10:34N 51°01' E 001°38'9 8.9
2015-Jul-30 09:33N 50°58' E 001°51'6 6.4
2015-Jul-30 08:33N 50°58' E 001°41'1612.8
2015-Jul-30 07:18N 51°07' E 001°20'0 0.2
2015-Jul-30 06:33N 51°07' E 001°20'1817.8
2015-Jul-30 05:33N 50°58' E 001°44'4 4.1
2015-Jul-30 04:34N 50°58' E 001°51'4 3.9
2015-Jul-30 03:33N 50°58' E 001°45'1515.5
2015-Jul-30 02:34N 51°06' E 001°24'3 2.7
2015-Jul-30 01:33N 51°07' E 001°20'8 8.4
2015-Jul-30 00:33N 51°04' E 001°32'1313.2
2015-Jul-29 23:33N 50°58' E 001°51'1 0.9
2015-Jul-29 22:33N 50°58' E 001°50'1918.7
2015-Jul-29 21:33N 51°06' E 001°22'2 1.9
2015-Jul-29 20:30N 51°07' E 001°20'1314.2
2015-Jul-29 19:33N 51°01' E 001°39'8 8.4
2015-Jul-29 18:33N 50°58' E 001°51'8 7.5
2015-Jul-29 17:33N 50°58' E 001°39'13 6.7
2015-Jul-29 15:33N 51°07' E 001°23'1818.4
2015-Jul-29 14:33N 50°58' E 001°49'2 1.8
2015-Jul-29 13:33N 50°58' E 001°51'1313.2
2015-Jul-29 12:34N 51°03' E 001°32'9 6.1
2015-Jul-29 11:07N 51°07' E 001°20'712.1
2015-Jul-29 10:33N 51°05' E 001°30'1515.0
2015-Jul-29 09:33N 50°58' E 001°51'0 0.0
2015-Jul-29 08:33N 50°58' E 001°51'1717.4
2015-Jul-29 07:34N 51°05' E 001°26'4 3.3
2015-Jul-29 06:14N 51°07' E 001°20'913.0
2015-Jul-29 05:34N 51°04' E 001°33'1312.6
2015-Jul-29 04:33N 50°58' E 001°51'2 2.1
2015-Jul-29 03:33N 50°58' E 001°48'1616.4
2015-Jul-29 02:33N 51°06' E 001°25'3 2.2
2015-Jul-29 01:04N 51°07' E 001°20'510.6
2015-Jul-29 00:33N 51°07' E 001°28'1615.6
2015-Jul-28 23:34N 50°58' E 001°49'1 0.6
2015-Jul-28 22:33N 50°58' E 001°48'1918.9
2015-Jul-28 21:33N 51°07' E 001°22'1 1.0
2015-Jul-28 20:33N 51°07' E 001°20'1615.6
2015-Jul-28 19:33N 51°00' E 001°42'6 5.9
2015-Jul-28 18:33N 50°58' E 001°51'9 9.1
2015-Jul-28 17:33N 50°59' E 001°37'12 9.1
2015-Jul-28 16:15N 51°07' E 001°22'5 7.3
2015-Jul-28 15:33N 51°05' E 001°30'1515.2
2015-Jul-28 14:33N 50°58' E 001°51'1 1.3
2015-Jul-28 13:33N 50°58' E 001°49'1717.4
2015-Jul-28 12:33N 51°05' E 001°24'3 2.9
2015-Jul-28 11:26N 51°07' E 001°20'1415.7
2015-Jul-28 10:33N 51°01' E 001°39'8 8.0
2015-Jul-28 09:33N 50°58' E 001°51'4 3.6
2015-Jul-28 08:32N 50°58' E 001°46'1616.5
2015-Jul-28 07:33N 51°06' E 001°24'3 1.9
2015-Jul-28 06:10N 51°07' E 001°20'1016.0
2015-Jul-28 05:34N 51°03' E 001°34'1211.8
2015-Jul-28 04:33N 50°58' E 001°51'1 1.3
2015-Jul-28 03:34N 50°58' E 001°49'1717.0
2015-Jul-28 02:34N 51°05' E 001°24'3 3.1
2015-Jul-28 01:31N 51°07' E 001°20'1515.2
2015-Jul-28 00:33N 51°00' E 001°41'7 6.8
2015-Jul-27 23:33N 50°58' E 001°51'1313.5
2015-Jul-27 22:33N 51°03' E 001°31'8 5.8
2015-Jul-27 21:07N 51°07' E 001°20'5 8.4
2015-Jul-27 20:33N 51°06' E 001°27'1515.3
2015-Jul-27 19:33N 50°58' E 001°48'2 1.6
2015-Jul-27 18:31N 50°58' E 001°51'1616.5
2015-Jul-27 17:33N 51°03' E 001°27'6 5.0
2015-Jul-27 16:19N 51°07' E 001°20'6 8.0
2015-Jul-27 15:33N 51°05' E 001°29'1615.5
2015-Jul-27 14:33N 50°58' E 001°51'0 0.3
2015-Jul-27 13:33N 50°58' E 001°51'1716.9
2015-Jul-27 12:33N 51°05' E 001°26'4 3.4
2015-Jul-27 11:15N 51°07' E 001°20'1014.0
2015-Jul-27 10:34N 51°04' E 001°34'1211.8
2015-Jul-27 09:32N 50°58' E 001°51'5 5.1
2015-Jul-27 08:33N 50°58' E 001°43'16 8.0
2015-Jul-27 06:33N 51°07' E 001°22'9 9.1
2015-Jul-27 05:33N 51°03' E 001°35'1110.3
2015-Jul-27 04:28N 50°58' E 001°51'2 2.6
2015-Jul-27 03:33N 50°58' E 001°47'1818.0
2015-Jul-27 02:33N 51°07' E 001°22'1 0.6
2015-Jul-27 01:33N 51°07' E 001°23'1616.5
2015-Jul-27 00:33N 50°58' E 001°45'4 3.9
2015-Jul-26 23:31N 50°58' E 001°51'1515.3
2015-Jul-26 22:34N 51°04' E 001°29'5 2.7
2015-Jul-26 20:33N 51°07' E 001°23'1313.1
2015-Jul-26 19:33N 51°00' E 001°41'7 6.9
2015-Jul-26 18:33N 50°58' E 001°51'1211.8
2015-Jul-26 17:33N 51°02' E 001°34'6 2.8
2015-Jul-26 15:33N 51°06' E 001°28'1716.8
2015-Jul-26 14:34N 50°58' E 001°51'0 0.1
2015-Jul-26 13:33N 50°58' E 001°51'1515.3
2015-Jul-26 12:33N 51°04' E 001°29'7 4.6
2015-Jul-26 11:09N 51°07' E 001°20'814.3
2015-Jul-26 10:33N 51°04' E 001°32'1313.0
2015-Jul-26 09:32N 50°58' E 001°51'3 2.9
2015-Jul-26 08:33N 50°58' E 001°47'1818.0
2015-Jul-26 07:33N 51°07' E 001°22'1 0.9
2015-Jul-26 06:12N 51°07' E 001°20'913.9
2015-Jul-26 05:34N 51°04' E 001°33'1312.3
2015-Jul-26 04:32N 50°58' E 001°51'4 4.1
2015-Jul-26 03:33N 50°58' E 001°45'1717.0
2015-Jul-26 02:33N 51°07' E 001°22'2 1.1
2015-Jul-26 00:33N 51°08' E 001°25'3 2.2
2015-Jul-25 23:09N 51°07' E 001°20'712.1
2015-Jul-25 22:34N 51°04' E 001°30'1514.6
2015-Jul-25 21:33N 50°58' E 001°51'0 0.0
2015-Jul-25 20:33N 50°58' E 001°51'1515.2
2015-Jul-25 19:33N 51°03' E 001°29'7 5.1
2015-Jul-25 18:11N 51°07' E 001°20'913.9
2015-Jul-25 17:33N 51°04' E 001°33'1313.1
2015-Jul-25 16:33N 50°58' E 001°51'0 0.0
2015-Jul-25 15:33N 50°58' E 001°51'5 5.1
2015-Jul-25 14:33N 50°58' E 001°43'1717.2
2015-Jul-25 13:33N 51°07' E 001°20'0 0.3
2015-Jul-25 12:30N 51°07' E 001°20'1717.8
2015-Jul-25 11:33N 50°59' E 001°43'5 4.9
2015-Jul-25 10:31N 50°58' E 001°51'8 8.1
2015-Jul-25 09:33N 50°58' E 001°39'15 7.2
2015-Jul-25 07:27N 51°07' E 001°20'1415.9
2015-Jul-25 06:33N 51°01' E 001°40'7 6.2
2015-Jul-25 05:23N 50°58' E 001°51'5 5.8
2015-Jul-25 04:33N 50°59' E 001°44'4 3.7
2015-Jul-25 03:31N 51°00' E 001°38'10 5.0
2015-Jul-25 01:33N 51°07' E 001°26'1817.6
2015-Jul-25 00:33N 50°58' E 001°51'0 0.4
2015-Jul-24 23:33N 50°58' E 001°50'1716.9
2015-Jul-24 22:33N 51°05' E 001°25'4 3.3
2015-Jul-24 21:21N 51°07' E 001°20'1315.7
2015-Jul-24 20:33N 51°02' E 001°38'9 8.7
2015-Jul-24 19:31N 50°58' E 001°51'9 9.5
2015-Jul-24 18:33N 50°60' E 001°37'9 4.7
2015-Jul-24 16:34N 51°07' E 001°27'1717.4
2015-Jul-24 15:34N 50°58' E 001°51'0 0.2
2015-Jul-24 14:33N 50°58' E 001°51'2 1.9
2015-Jul-24 13:33N 50°58' E 001°48'1616.5
2015-Jul-24 12:33N 51°05' E 001°25'4 3.3
2015-Jul-24 11:27N 51°07' E 001°20'1516.6
2015-Jul-24 10:34N 51°00' E 001°40'7 7.0
2015-Jul-24 09:33N 50°58' E 001°51'8 7.6
2015-Jul-24 08:33N 50°59' E 001°39'15 9.9
2015-Jul-24 07:04N 51°07' E 001°20'2 3.0
2015-Jul-24 06:34N 51°07' E 001°23'1616.1
2015-Jul-24 05:34N 50°58' E 001°44'5 4.5
2015-Jul-24 04:32N 50°58' E 001°51'1313.7
2015-Jul-24 03:33N 51°02' E 001°31'3 1.3
2015-Jul-24 01:33N 51°05' E 001°32'1413.9
2015-Jul-24 00:34N 50°58' E 001°51'3 3.0
2015-Jul-23 23:33N 50°58' E 001°46'1817.7
2015-Jul-23 22:33N 51°06' E 001°21'2 1.4
2015-Jul-23 21:27N 51°07' E 001°20'2 2.3
2015-Jul-23 20:34N 51°07' E 001°23'1817.8
2015-Jul-23 19:33N 50°58' E 001°48'2 2.0
2015-Jul-23 18:32N 50°58' E 001°51'1616.1
2015-Jul-23 17:33N 51°04' E 001°28'6 6.2
2015-Jul-23 16:33N 51°07' E 001°20'9 8.7
2015-Jul-23 15:33N 51°04' E 001°33'1313.1
2015-Jul-23 14:33N 50°58' E 001°51'1 0.7
2015-Jul-23 13:32N 50°58' E 001°50'1515.3
2015-Jul-23 12:33N 51°04' E 001°28'6 4.5
2015-Jul-23 11:11N 51°07' E 001°20'711.5
2015-Jul-23 10:34N 51°06' E 001°31'1514.6
2015-Jul-23 09:33N 50°58' E 001°51'4 3.7
2015-Jul-23 08:33N 50°58' E 001°45'1818.0
2015-Jul-23 07:32N 51°07' E 001°20'0 0.1
2015-Jul-23 06:33N 51°07' E 001°20'1515.3
2015-Jul-23 05:34N 50°60' E 001°41'6 6.4
2015-Jul-23 04:33N 50°58' E 001°51'8 8.4
2015-Jul-23 03:33N 50°59' E 001°38'14 6.9
2015-Jul-23 01:33N 51°07' E 001°20'1717.3
2015-Jul-23 00:33N 50°59' E 001°44'5 4.6
2015-Jul-22 23:33N 50°58' E 001°51'8 7.7
2015-Jul-22 22:33N 50°58' E 001°39'1312.9
2015-Jul-22 21:33N 51°06' E 001°23'2 1.4
2015-Jul-22 20:17N 51°07' E 001°20'1216.5
2015-Jul-22 19:33N 51°02' E 001°37'9 9.5
2015-Jul-22 18:33N 50°58' E 001°51'9 8.5
2015-Jul-22 17:32N 50°60' E 001°38'13 6.6
2015-Jul-22 15:33N 51°07' E 001°20'1717.3
2015-Jul-22 14:33N 50°59' E 001°44'4 3.7
2015-Jul-22 13:24N 50°58' E 001°51'1416.3
2015-Jul-22 12:33N 51°02' E 001°30'8 5.6
2015-Jul-22 11:05N 51°07' E 001°20'916.3
2015-Jul-22 10:34N 51°05' E 001°33'1313.2
2015-Jul-22 09:33N 50°58' E 001°51'5 4.8
2015-Jul-22 08:33N 50°58' E 001°43'17 7.9
2015-Jul-22 06:23N 51°07' E 001°20'1214.0
2015-Jul-22 05:34N 51°03' E 001°37'  
Track history (hours):
 
Tides and Currents Weather Stations Pressure Air Temp Water Temp Dewpoint Dewpoint Depression Visibility Wind Speed Wind Dir Waves Ship Positions

Pride Of Kent

Operator: P & O Ferries

Last reported at 2015-Aug-01 04:33 UTC. Time now 2015-Aug-01 05:46 UTC.
Position N 50°58' E 001°51'.

Length 180 m; draft 6 m.

Type: Passenger vessel. MMSI: 232009000.

Date/timePositionNaut miles runAvg speedWind from/ knotsBaromVisibWave heightAir tempDewpointWater temp
2015-Aug-01 04:33N 50°58' E 001°51'3 2.6
2015-Aug-01 03:33N 50°58' E 001°47'1616.3
2015-Aug-01 02:33N 51°06' E 001°24'3 2.1
2015-Aug-01 01:07N 51°07' E 001°20'5 9.0
2015-Aug-01 00:33N 51°07' E 001°28'1514.9
2015-Jul-31 23:34N 50°58' E 001°47'2 2.4
2015-Jul-31 22:33N 50°58' E 001°51'1515.0
2015-Jul-31 21:33N 51°02' E 001°28'7 6.4
2015-Jul-31 20:24N 51°07' E 001°20'910.5
2015-Jul-31 19:34N 51°04' E 001°33'1312.7
2015-Jul-31 18:33N 50°58' E 001°51'6 5.6
2015-Jul-31 17:33N 50°58' E 001°42'1716.6
2015-Jul-31 16:33N 51°07' E 001°20'2 1.5
2015-Jul-31 15:33N 51°07' E 001°22'1918.9
2015-Jul-31 14:34N 50°58' E 001°49'1 1.0
2015-Jul-31 13:33N 50°58' E 001°50'1717.2
2015-Jul-31 12:33N 51°05' E 001°26'4 3.6
2015-Jul-31 11:25N 51°07' E 001°20'1213.9
2015-Jul-31 10:33N 51°02' E 001°37'10 9.7
2015-Jul-31 09:33N 50°58' E 001°51'6 5.8
2015-Jul-31 08:33N 50°58' E 001°42'1716.7
2015-Jul-31 07:33N 51°07' E 001°20'0 0.5
2015-Jul-31 06:33N 51°07' E 001°20'8 8.1
2015-Jul-31 05:33N 51°04' E 001°31'1313.4
2015-Jul-31 04:33N 50°58' E 001°51'1 1.2
2015-Jul-31 03:33N 50°58' E 001°49'1615.8
2015-Jul-31 02:33N 51°05' E 001°27'5 3.3
2015-Jul-31 01:09N 51°07' E 001°20'812.7
2015-Jul-31 00:33N 51°04' E 001°31'1411.5
2015-Jul-30 23:20N 50°58' E 001°51'5 6.2
2015-Jul-30 22:33N 50°58' E 001°43'17 8.7
2015-Jul-30 20:33N 51°07' E 001°20'1817.8
2015-Jul-30 19:33N 50°58' E 001°45'4 4.1
2015-Jul-30 18:33N 50°58' E 001°51'1313.3
2015-Jul-30 17:33N 51°01' E 001°31'9 6.3
2015-Jul-30 16:05N 51°07' E 001°20'712.7
2015-Jul-30 15:33N 51°05' E 001°30'1515.1
2015-Jul-30 14:33N 50°58' E 001°51'1 1.5
2015-Jul-30 13:34N 50°58' E 001°49'1918.7
2015-Jul-30 12:33N 51°07' E 001°22'2 1.6
2015-Jul-30 11:30N 51°07' E 001°20'1313.7
2015-Jul-30 10:34N 51°01' E 001°38'9 8.9
2015-Jul-30 09:33N 50°58' E 001°51'6 6.4
2015-Jul-30 08:33N 50°58' E 001°41'1612.8
2015-Jul-30 07:18N 51°07' E 001°20'0 0.2
2015-Jul-30 06:33N 51°07' E 001°20'1817.8
2015-Jul-30 05:33N 50°58' E 001°44'4 4.1
2015-Jul-30 04:34N 50°58' E 001°51'4 3.9
2015-Jul-30 03:33N 50°58' E 001°45'1515.5
2015-Jul-30 02:34N 51°06' E 001°24'3 2.7
2015-Jul-30 01:33N 51°07' E 001°20'8 8.4
2015-Jul-30 00:33N 51°04' E 001°32'1313.2
2015-Jul-29 23:33N 50°58' E 001°51'1 0.9
2015-Jul-29 22:33N 50°58' E 001°50'1918.7
2015-Jul-29 21:33N 51°06' E 001°22'2 1.9
2015-Jul-29 20:30N 51°07' E 001°20'1314.2
2015-Jul-29 19:33N 51°01' E 001°39'8 8.4
2015-Jul-29 18:33N 50°58' E 001°51'8 7.5
2015-Jul-29 17:33N 50°58' E 001°39'13 6.7
2015-Jul-29 15:33N 51°07' E 001°23'1818.4
2015-Jul-29 14:33N 50°58' E 001°49'2 1.8
2015-Jul-29 13:33N 50°58' E 001°51'1313.2
2015-Jul-29 12:34N 51°03' E 001°32'9 6.1
2015-Jul-29 11:07N 51°07' E 001°20'712.1
2015-Jul-29 10:33N 51°05' E 001°30'1515.0
2015-Jul-29 09:33N 50°58' E 001°51'0 0.0
2015-Jul-29 08:33N 50°58' E 001°51'1717.4
2015-Jul-29 07:34N 51°05' E 001°26'4 3.3
2015-Jul-29 06:14N 51°07' E 001°20'913.0
2015-Jul-29 05:34N 51°04' E 001°33'1312.6
2015-Jul-29 04:33N 50°58' E 001°51'2 2.1
2015-Jul-29 03:33N 50°58' E 001°48'1616.4
2015-Jul-29 02:33N 51°06' E 001°25'3 2.2
2015-Jul-29 01:04N 51°07' E 001°20'510.6
2015-Jul-29 00:33N 51°07' E 001°28'1615.6
2015-Jul-28 23:34N 50°58' E 001°49'1 0.6
2015-Jul-28 22:33N 50°58' E 001°48'1918.9
2015-Jul-28 21:33N 51°07' E 001°22'1 1.0
2015-Jul-28 20:33N 51°07' E 001°20'1615.6
2015-Jul-28 19:33N 51°00' E 001°42'6 5.9
2015-Jul-28 18:33N 50°58' E 001°51'9 9.1
2015-Jul-28 17:33N 50°59' E 001°37'12 9.1
2015-Jul-28 16:15N 51°07' E 001°22'5 7.3
2015-Jul-28 15:33N 51°05' E 001°30'1515.2
2015-Jul-28 14:33N 50°58' E 001°51'1 1.3
2015-Jul-28 13:33N 50°58' E 001°49'1717.4
2015-Jul-28 12:33N 51°05' E 001°24'3 2.9
2015-Jul-28 11:26N 51°07' E 001°20'1415.7
2015-Jul-28 10:33N 51°01' E 001°39'8 8.0
2015-Jul-28 09:33N 50°58' E 001°51'4 3.6
2015-Jul-28 08:32N 50°58' E 001°46'1616.5
2015-Jul-28 07:33N 51°06' E 001°24'3 1.9
2015-Jul-28 06:10N 51°07' E 001°20'1016.0
2015-Jul-28 05:34N 51°03' E 001°34'1211.8
2015-Jul-28 04:33N 50°58' E 001°51'1 1.3
2015-Jul-28 03:34N 50°58' E 001°49'1717.0
2015-Jul-28 02:34N 51°05' E 001°24'3 3.1
2015-Jul-28 01:31N 51°07' E 001°20'1515.2
2015-Jul-28 00:33N 51°00' E 001°41'7 6.8
2015-Jul-27 23:33N 50°58' E 001°51'1313.5
2015-Jul-27 22:33N 51°03' E 001°31'8 5.8
2015-Jul-27 21:07N 51°07' E 001°20'5 8.4
2015-Jul-27 20:33N 51°06' E 001°27'1515.3
2015-Jul-27 19:33N 50°58' E 001°48'2 1.6
2015-Jul-27 18:31N 50°58' E 001°51'1616.5
2015-Jul-27 17:33N 51°03' E 001°27'6 5.0
2015-Jul-27 16:19N 51°07' E 001°20'6 8.0
2015-Jul-27 15:33N 51°05' E 001°29'1615.5
2015-Jul-27 14:33N 50°58' E 001°51'0 0.3
2015-Jul-27 13:33N 50°58' E 001°51'1716.9
2015-Jul-27 12:33N 51°05' E 001°26'4 3.4
2015-Jul-27 11:15N 51°07' E 001°20'1014.0
2015-Jul-27 10:34N 51°04' E 001°34'1211.8
2015-Jul-27 09:32N 50°58' E 001°51'5 5.1
2015-Jul-27 08:33N 50°58' E 001°43'16 8.0
2015-Jul-27 06:33N 51°07' E 001°22'9 9.1
2015-Jul-27 05:33N 51°03' E 001°35'1110.3
2015-Jul-27 04:28N 50°58' E 001°51'2 2.6
2015-Jul-27 03:33N 50°58' E 001°47'1818.0
2015-Jul-27 02:33N 51°07' E 001°22'1 0.6
2015-Jul-27 01:33N 51°07' E 001°23'1616.5
2015-Jul-27 00:33N 50°58' E 001°45'4 3.9
2015-Jul-26 23:31N 50°58' E 001°51'1515.3
2015-Jul-26 22:34N 51°04' E 001°29'5 2.7
2015-Jul-26 20:33N 51°07' E 001°23'1313.1
2015-Jul-26 19:33N 51°00' E 001°41'7 6.9
2015-Jul-26 18:33N 50°58' E 001°51'1211.8
2015-Jul-26 17:33N 51°02' E 001°34'6 2.8
2015-Jul-26 15:33N 51°06' E 001°28'1716.8
2015-Jul-26 14:34N 50°58' E 001°51'0 0.1
2015-Jul-26 13:33N 50°58' E 001°51'1515.3
2015-Jul-26 12:33N 51°04' E 001°29'7 4.6
2015-Jul-26 11:09N 51°07' E 001°20'814.3
2015-Jul-26 10:33N 51°04' E 001°32'1313.0
2015-Jul-26 09:32N 50°58' E 001°51'3 2.9
2015-Jul-26 08:33N 50°58' E 001°47'1818.0
2015-Jul-26 07:33N 51°07' E 001°22'1 0.9
2015-Jul-26 06:12N 51°07' E 001°20'913.9
2015-Jul-26 05:34N 51°04' E 001°33'1312.3
2015-Jul-26 04:32N 50°58' E 001°51'4 4.1
2015-Jul-26 03:33N 50°58' E 001°45'1717.0
2015-Jul-26 02:33N 51°07' E 001°22'2 1.1
2015-Jul-26 00:33N 51°08' E 001°25'3 2.2
2015-Jul-25 23:09N 51°07' E 001°20'712.1
2015-Jul-25 22:34N 51°04' E 001°30'1514.6
2015-Jul-25 21:33N 50°58' E 001°51'0 0.0
2015-Jul-25 20:33N 50°58' E 001°51'1515.2
2015-Jul-25 19:33N 51°03' E 001°29'7 5.1
2015-Jul-25 18:11N 51°07' E 001°20'913.9
2015-Jul-25 17:33N 51°04' E 001°33'1313.1
2015-Jul-25 16:33N 50°58' E 001°51'0 0.0
2015-Jul-25 15:33N 50°58' E 001°51'5 5.1
2015-Jul-25 14:33N 50°58' E 001°43'1717.2
2015-Jul-25 13:33N 51°07' E 001°20'0 0.3
2015-Jul-25 12:30N 51°07' E 001°20'1717.8
2015-Jul-25 11:33N 50°59' E 001°43'5 4.9
2015-Jul-25 10:31N 50°58' E 001°51'8 8.1
2015-Jul-25 09:33N 50°58' E 001°39'15 7.2
2015-Jul-25 07:27N 51°07' E 001°20'1415.9
2015-Jul-25 06:33N 51°01' E 001°40'7 6.2
2015-Jul-25 05:23N 50°58' E 001°51'5 5.8
2015-Jul-25 04:33N 50°59' E 001°44'4 3.7
2015-Jul-25 03:31N 51°00' E 001°38'10 5.0
2015-Jul-25 01:33N 51°07' E 001°26'1817.6
2015-Jul-25 00:33N 50°58' E 001°51'0 0.4
2015-Jul-24 23:33N 50°58' E 001°50'1716.9
2015-Jul-24 22:33N 51°05' E 001°25'4 3.3
2015-Jul-24 21:21N 51°07' E 001°20'1315.7
2015-Jul-24 20:33N 51°02' E 001°38'9 8.7
2015-Jul-24 19:31N 50°58' E 001°51'9 9.5
2015-Jul-24 18:33N 50°60' E 001°37'9 4.7
2015-Jul-24 16:34N 51°07' E 001°27'1717.4
2015-Jul-24 15:34N 50°58' E 001°51'0 0.2
2015-Jul-24 14:33N 50°58' E 001°51'2 1.9
2015-Jul-24 13:33N 50°58' E 001°48'1616.5
2015-Jul-24 12:33N 51°05' E 001°25'4 3.3
2015-Jul-24 11:27N 51°07' E 001°20'1516.6
2015-Jul-24 10:34N 51°00' E 001°40'7 7.0
2015-Jul-24 09:33N 50°58' E 001°51'8 7.6
2015-Jul-24 08:33N 50°59' E 001°39'15 9.9
2015-Jul-24 07:04N 51°07' E 001°20'2 3.0
2015-Jul-24 06:34N 51°07' E 001°23'1616.1
2015-Jul-24 05:34N 50°58' E 001°44'5 4.5
2015-Jul-24 04:32N 50°58' E 001°51'1313.7
2015-Jul-24 03:33N 51°02' E 001°31'3 1.3
2015-Jul-24 01:33N 51°05' E 001°32'1413.9
2015-Jul-24 00:34N 50°58' E 001°51'3 3.0
2015-Jul-23 23:33N 50°58' E 001°46'1817.7
2015-Jul-23 22:33N 51°06' E 001°21'2 1.4
2015-Jul-23 21:27N 51°07' E 001°20'2 2.3
2015-Jul-23 20:34N 51°07' E 001°23'1817.8
2015-Jul-23 19:33N 50°58' E 001°48'2 2.0
2015-Jul-23 18:32N 50°58' E 001°51'1616.1
2015-Jul-23 17:33N 51°04' E 001°28'6 6.2
2015-Jul-23 16:33N 51°07' E 001°20'9 8.7
2015-Jul-23 15:33N 51°04' E 001°33'1313.1
2015-Jul-23 14:33N 50°58' E 001°51'1 0.7
2015-Jul-23 13:32N 50°58' E 001°50'1515.3
2015-Jul-23 12:33N 51°04' E 001°28'6 4.5
2015-Jul-23 11:11N 51°07' E 001°20'711.5
2015-Jul-23 10:34N 51°06' E 001°31'1514.6
2015-Jul-23 09:33N 50°58' E 001°51'4 3.7
2015-Jul-23 08:33N 50°58' E 001°45'1818.0
2015-Jul-23 07:32N 51°07' E 001°20'0 0.1
2015-Jul-23 06:33N 51°07' E 001°20'1515.3
2015-Jul-23 05:34N 50°60' E 001°41'6 6.4
2015-Jul-23 04:33N 50°58' E 001°51'8 8.4
2015-Jul-23 03:33N 50°59' E 001°38'14 6.9
2015-Jul-23 01:33N 51°07' E 001°20'1717.3
2015-Jul-23 00:33N 50°59' E 001°44'5 4.6
2015-Jul-22 23:33N 50°58' E 001°51'8 7.7
2015-Jul-22 22:33N 50°58' E 001°39'1312.9
2015-Jul-22 21:33N 51°06' E 001°23'2 1.4
2015-Jul-22 20:17N 51°07' E 001°20'1216.5
2015-Jul-22 19:33N 51°02' E 001°37'9 9.5
2015-Jul-22 18:33N 50°58' E 001°51'9 8.5
2015-Jul-22 17:32N 50°60' E 001°38'13 6.6
2015-Jul-22 15:33N 51°07' E 001°20'1717.3
2015-Jul-22 14:33N 50°59' E 001°44'4 3.7
2015-Jul-22 13:24N 50°58' E 001°51'1416.3
2015-Jul-22 12:33N 51°02' E 001°30'8 5.6
2015-Jul-22 11:05N 51°07' E 001°20'916.3
2015-Jul-22 10:34N 51°05' E 001°33'1313.2
2015-Jul-22 09:33N 50°58' E 001°51'5 4.8
2015-Jul-22 08:33N 50°58' E 001°43'17 7.9
2015-Jul-22 06:23N 51°07' E 001°20'1214.0
2015-Jul-22 05:34N 51°03' E 001°37'  

Dump ship's entire track history